Time;durP1;ratioP1;P1;durP2;ratioP2;P2;SDS_P1;SDS_P2;PMS_P1;PMS_P2;Temp;Humidity;BMP_temperature;BMP_pressure;BME280_temperature;BME280_humidity;BME280_pressure;Samples;Min_cycle;Max_cycle;Signal;HPM_P1;HPM_P2
2024/01/19 00:01:26;;;;;;;45.72;21.95;;;0.10;99.90;;;0.43;71.01;100236.78;4975841;28;20089;-88
2024/01/19 00:03:56;;;;;;;42.53;22.88;;;0.10;99.90;;;0.41;70.96;100246.63;4976036;28;20043;-88
2024/01/19 00:06:24;;;;;;;;;;;0.00;99.90;;;0.41;70.93;100246.63;4927414;28;20072;-88
2024/01/19 00:08:52;;;;;;;45.42;22.13;;;0.10;99.90;;;0.40;70.86;100237.09;4975471;28;20012;-89
2024/01/19 00:11:19;;;;;;;42.90;22.10;;;0.00;99.90;;;0.43;70.81;100249.91;4975965;28;20047;-89
2024/01/19 00:13:47;;;;;;;43.22;22.25;;;0.10;99.90;;;0.43;70.66;100249.91;4958054;28;20067;-89
2024/01/19 00:16:15;;;;;;;43.95;23.05;;;0.00;99.90;;;0.39;71.22;100248.53;4986066;28;20049;-89
2024/01/19 00:18:43;;;;;;;46.97;23.30;;;0.00;99.90;;;0.39;71.15;100257.25;4984258;28;20047;-89
2024/01/19 00:21:14;;;;;;;46.50;23.70;;;0.00;99.90;;;0.40;71.23;100261.53;4957844;28;20073;-88
2024/01/19 00:23:41;;;;;;;47.42;24.17;;;0.00;99.90;;;0.40;71.04;100258.91;4926585;28;20057;-88
2024/01/19 00:26:09;;;;;;;45.83;23.60;;;0.00;99.90;;;0.40;70.91;100260.72;4957379;28;20510;-88
2024/01/19 00:28:36;;;;;;;46.97;23.33;;;0.00;99.90;;;0.40;70.95;100265.97;4958180;28;20082;-88
2024/01/19 00:31:04;;;;;;;45.35;23.20;;;0.00;99.90;;;0.38;70.99;100258.22;4978155;28;20043;-88
2024/01/19 00:33:32;;;;;;;48.83;23.40;;;0.00;99.90;;;0.34;71.03;100263.91;4974595;28;20564;-88
2024/01/19 00:36:00;;;;;;;43.47;22.75;;;0.00;99.90;;;0.30;71.27;100259.97;4974316;28;20053;-88
2024/01/19 00:38:30;;;;;;;46.03;22.98;;;0.00;99.90;;;0.29;71.35;100259.09;4974539;28;20043;-88
2024/01/19 00:40:59;;;;;;;42.90;21.90;;;0.00;99.90;;;0.27;71.23;100266.31;4981028;28;20069;-88
2024/01/19 00:43:27;;;;;;;42.78;21.67;;;-0.10;99.90;;;0.25;71.37;100269.09;4973992;28;20051;-88
2024/01/19 00:45:55;;;;;;;47.33;23.35;;;0.00;99.90;;;0.27;71.16;100281.22;4973590;28;20411;-88
2024/01/19 00:48:22;;;;;;;42.28;21.58;;;-0.10;99.90;;;0.28;71.28;100282.88;4975133;28;20047;-88
2024/01/19 00:50:50;;;;;;;42.55;21.92;;;-0.10;99.90;;;0.30;71.06;100275.69;4974531;28;20137;-88
2024/01/19 00:53:18;;;;;;;43.20;21.98;;;-0.10;99.90;;;0.30;71.10;100271.28;4974315;28;20507;-88
2024/01/19 00:55:47;;;;;;;43.17;22.17;;;-0.10;99.90;;;0.29;70.63;100274.03;4958800;28;20051;-88
2024/01/19 00:58:15;;;;;;;40.75;21.30;;;-0.10;99.90;;;0.27;70.16;100281.22;4974579;28;20065;-88
2024/01/19 01:00:43;;;;;;;40.72;21.60;;;-0.10;99.90;;;0.24;70.51;100282.34;4956008;28;20124;-88
2024/01/19 01:03:10;;;;;;;39.72;21.27;;;-0.10;99.90;;;0.20;70.59;100281.00;4972524;28;20078;-88
2024/01/19 01:05:38;;;;;;;34.95;21.45;;;0.10;99.90;;;0.14;70.50;100287.66;4973118;28;20090;-88
2024/01/19 01:08:06;;;;;;;34.70;19.83;;;-0.10;99.90;;;0.08;70.82;100292.66;4988851;28;20510;-88
2024/01/19 01:10:34;;;;;;;33.30;19.60;;;-0.20;99.90;;;0.05;70.80;100298.19;4927511;28;20070;-88
2024/01/19 01:13:04;;;;;;;34.53;20.23;;;-0.30;99.90;;;0.08;71.06;100303.97;4975085;28;20049;-88
2024/01/19 01:15:32;;;;;;;34.90;20.27;;;-0.20;99.90;;;0.08;70.97;100293.50;4962174;28;20114;-88
2024/01/19 01:17:59;;;;;;;35.45;20.50;;;-0.30;99.90;;;-0.01;70.61;100292.56;4958964;28;20462;-88
2024/01/19 01:20:27;;;;;;;36.03;20.13;;;-0.30;99.90;;;-0.11;71.11;100297.06;4977127;28;20491;-88
2024/01/19 01:22:54;;;;;;;35.83;19.10;;;-0.40;99.90;;;-0.11;70.99;100304.91;4954821;28;20126;-88
2024/01/19 01:25:22;;;;;;;31.98;19.13;;;-0.40;99.90;;;-0.17;71.29;100304.69;4973221;28;20046;-88
2024/01/19 01:27:50;;;;;;;32.05;18.80;;;-0.40;99.90;;;-0.17;71.33;100309.94;4975202;28;20073;-88
2024/01/19 01:30:19;;;;;;;34.63;19.83;;;-0.40;99.90;;;-0.15;71.06;100305.34;4968850;28;20066;-89
2024/01/19 01:32:47;;;;;;;33.28;18.98;;;-0.40;99.90;;;-0.13;71.23;100316.53;4935432;28;20081;-88
2024/01/19 01:35:15;;;;;;;35.30;19.50;;;-0.40;99.90;;;-0.19;71.26;100322.38;4991523;28;20574;-88
2024/01/19 01:37:43;;;;;;;37.15;19.73;;;-0.40;99.90;;;-0.18;70.94;100319.59;4959149;28;20046;-88
2024/01/19 01:40:12;;;;;;;31.75;18.65;;;-0.50;99.90;;;-0.18;70.98;100330.06;4975160;28;20054;-88
2024/01/19 01:42:40;;;;;;;30.25;17.95;;;-0.50;99.90;;;-0.28;71.22;100337.97;4959231;28;20538;-88
2024/01/19 01:45:08;;;;;;;32.33;18.75;;;-0.50;99.90;;;-0.17;71.02;100357.09;4959056;28;20106;-89
2024/01/19 01:47:38;;;;;;;31.33;17.92;;;-0.50;99.90;;;-0.18;70.82;100355.44;4975229;28;20098;-88
2024/01/19 01:50:07;;;;;;;31.30;18.50;;;-0.50;99.90;;;-0.14;70.64;100351.56;4987287;28;20076;-88
2024/01/19 01:52:35;;;;;;;31.73;17.75;;;-0.50;99.90;;;-0.15;70.36;100349.91;4972222;28;20046;-88
2024/01/19 01:55:05;;;;;;;36.75;18.48;;;-0.50;99.90;;;-0.13;70.29;100358.47;4997159;28;20049;-88
2024/01/19 01:57:34;;;;;;;32.70;18.70;;;-0.50;99.90;;;-0.12;70.17;100360.94;4978821;28;20137;-88
2024/01/19 02:00:02;;;;;;;34.17;19.17;;;-0.50;99.90;;;-0.10;70.31;100373.88;4975017;28;20070;-88
2024/01/19 02:02:33;;;;;;;36.00;18.67;;;-0.40;99.90;;;-0.08;70.35;100388.50;4980366;28;20501;-88
2024/01/19 02:05:06;;;;;;;34.42;19.33;;;-0.40;99.90;;;-0.12;70.46;100388.94;4959043;28;20062;-88
2024/01/19 02:07:40;;;;;;;34.63;19.05;;;-0.50;99.90;;;-0.13;70.25;100390.75;4970960;28;20078;-88
2024/01/19 02:10:10;;;;;;;33.45;19.23;;;-0.40;99.90;;;-0.24;70.04;100385.69;4987397;28;20101;-88
2024/01/19 02:12:41;;;;;;;37.35;19.65;;;-0.50;99.90;;;-0.33;70.91;100378.69;4983555;28;20074;-88
2024/01/19 02:15:20;;;;;;;37.88;20.48;;;-0.50;99.90;;;-0.42;71.39;100384.78;4973302;28;20078;-88
2024/01/19 02:17:47;;;;;;;43.10;20.42;;;-0.60;99.90;;;-0.39;71.95;100382.69;4954478;28;20050;-88
2024/01/19 02:20:17;;;;;;;39.90;21.60;;;-0.60;99.90;;;-0.37;72.25;100387.78;4975077;28;20077;-89
2024/01/19 02:22:49;;;;;;;40.63;20.83;;;-0.60;99.90;;;-0.28;72.30;100382.50;4971157;28;20035;-88
2024/01/19 02:25:22;;;;;;;39.25;20.35;;;-0.60;99.90;;;-0.23;72.05;100379.47;4972405;28;20071;-88
2024/01/19 02:27:49;;;;;;;41.55;23.08;;;-0.50;99.90;;;-0.22;72.13;100383.72;4979736;28;20058;-88
2024/01/19 02:30:18;;;;;;;46.70;22.80;;;-0.50;99.90;;;-0.44;73.12;100391.94;4978125;28;20047;-88
2024/01/19 02:32:45;;;;;;;43.88;22.75;;;-0.60;99.90;;;-0.39;73.18;100403.66;4947490;28;20054;-88
2024/01/19 02:35:15;;;;;;;44.20;24.00;;;-0.50;99.90;;;-0.34;73.07;100411.91;4980714;28;20058;-88
2024/01/19 02:37:45;;;;;;;50.35;24.95;;;-0.50;99.90;;;-0.31;73.27;100401.13;4981485;28;20058;-88
2024/01/19 02:40:14;;;;;;;52.00;25.17;;;-0.50;99.90;;;-0.29;73.54;100404.44;4963925;28;20078;-88
2024/01/19 02:42:46;;;;;;;46.53;24.05;;;-0.50;99.90;;;-0.27;73.40;100406.91;4988869;28;20533;-88
2024/01/19 02:45:14;;;;;;;45.33;23.50;;;-0.40;99.90;;;-0.21;73.26;100423.88;4970441;28;20046;-88
2024/01/19 02:47:45;;;;;;;44.25;23.27;;;-0.40;99.90;;;-0.15;73.34;100418.03;4964748;28;20055;-88
2024/01/19 02:50:12;;;;;;;49.75;25.05;;;-0.30;99.90;;;-0.22;73.50;100420.41;4978684;28;20055;-88
2024/01/19 02:52:43;;;;;;;54.42;25.75;;;-0.30;99.90;;;-0.28;73.56;100423.63;4986381;28;20498;-88
2024/01/19 02:55:15;;;;;;;53.30;25.50;;;-0.40;99.90;;;-0.52;74.63;100424.91;4949987;28;20055;-87
2024/01/19 02:57:42;;;;;;;55.67;25.45;;;-0.50;99.90;;;-0.40;74.71;100438.66;4991929;28;20109;-88
2024/01/19 03:00:14;;;;;;;59.00;28.00;;;-0.50;99.90;;;-0.33;74.66;100428.47;4981836;28;20062;-88
2024/01/19 03:02:41;;;;;;;60.60;27.30;;;-0.40;99.90;;;-0.23;74.30;100413.53;4925446;29;20055;-88
2024/01/19 03:05:12;;;;;;;56.47;25.33;;;-0.40;99.90;;;-0.24;74.32;100413.66;4945134;28;20050;-88
2024/01/19 03:07:43;;;;;;;60.47;26.23;;;-0.30;99.90;;;-0.28;74.30;100418.38;4978868;28;20050;-88
2024/01/19 03:10:11;;;;;;;59.40;26.05;;;-0.20;99.90;;;-0.26;74.47;100416.44;4977790;28;20152;-88
2024/01/19 03:12:42;;;;;;;60.78;26.52;;;-0.40;99.90;;;-0.30;74.45;100421.13;4960537;28;20047;-88
2024/01/19 03:15:11;;;;;;;58.63;27.27;;;-0.40;99.90;;;-0.21;74.44;100423.88;4975379;28;20078;-88
2024/01/19 03:17:42;;;;;;;56.38;25.88;;;-0.40;99.90;;;-0.19;74.30;100429.81;4976553;28;20046;-88
2024/01/19 03:23:00;;;;;;;59.58;26.52;;;-0.30;99.90;;;-0.31;74.94;100440.44;4909073;28;20542;-88
2024/01/19 03:25:28;;;;;;;60.22;27.10;;;-0.40;99.90;;;-0.30;74.83;100428.97;4958892;28;20057;-88
2024/01/19 03:27:55;;;;;;;60.58;27.05;;;-0.40;99.90;;;-0.44;75.08;100429.47;4943458;28;20114;-89
2024/01/19 03:30:25;;;;;;;60.55;27.15;;;-0.50;99.90;;;-0.39;75.26;100445.56;4976807;28;20046;-88
2024/01/19 03:32:53;;;;;;;63.17;26.45;;;-0.40;99.90;;;-0.27;75.10;100448.84;4971989;28;20417;-88
2024/01/19 03:35:20;;;;;;;59.38;26.40;;;-0.40;99.90;;;-0.18;74.99;100452.41;4977165;28;20521;-88
2024/01/19 03:37:47;;;;;;;73.93;27.98;;;-0.30;99.90;;;-0.24;75.04;100450.34;4976372;28;20043;-88
2024/01/19 03:40:15;;;;;;;59.53;26.48;;;-0.20;99.90;;;-0.50;76.10;100450.94;4983796;28;20066;-89
2024/01/19 03:42:44;;;;;;;57.80;25.90;;;-0.40;99.90;;;-0.40;76.07;100461.41;4950394;28;20051;-88
2024/01/19 03:45:12;;;;;;;63.35;26.00;;;-0.40;99.90;;;-0.41;75.97;100457.97;4952810;28;20097;-88
2024/01/19 03:47:42;;;;;;;68.30;26.77;;;-0.40;99.90;;;-0.44;76.48;100455.66;4975753;28;20042;-88
2024/01/19 03:50:10;;;;;;;62.53;26.48;;;-0.40;99.90;;;-0.53;76.91;100461.72;4979448;28;20050;-88
2024/01/19 03:52:38;;;;;;;59.50;26.45;;;-0.50;99.90;;;-0.52;77.06;100460.75;4980858;28;20042;-88
2024/01/19 03:55:09;;;;;;;65.45;26.75;;;-0.50;99.90;;;-0.50;76.97;100457.97;4969275;28;20047;-88
2024/01/19 03:57:37;;;;;;;65.88;25.80;;;-0.50;99.90;;;-0.55;77.56;100459.22;4945150;28;20047;-88
2024/01/19 04:00:09;;;;;;;62.60;26.13;;;-0.50;99.90;;;-0.53;77.70;100462.53;4977450;28;20121;-88
2024/01/19 04:02:41;;;;;;;62.83;25.15;;;-0.50;99.90;;;-0.38;77.56;100460.31;4985396;28;20061;-88
2024/01/19 04:05:09;;;;;;;59.38;25.85;;;-0.30;99.90;;;-0.31;77.24;100464.00;4975689;28;20050;-88
2024/01/19 04:07:36;;;;;;;61.00;26.52;;;-0.30;99.90;;;-0.22;77.19;100464.97;4980173;28;20076;-88
2024/01/19 04:10:07;;;;;;;64.30;26.27;;;-0.30;99.90;;;-0.20;77.17;100465.63;4980934;28;20058;-88
2024/01/19 04:12:35;;;;;;;;;;;-0.30;99.90;;;-0.25;77.08;100473.09;4976635;28;20047;-88
2024/01/19 04:15:06;;;;;;;67.60;27.17;;;-0.30;99.90;;;-0.31;77.20;100471.88;4960939;28;19922;-88
2024/01/19 04:17:34;;;;;;;63.75;27.05;;;-0.30;99.90;;;-0.35;77.86;100467.06;4973932;28;20058;-88
2024/01/19 04:20:09;;;;;;;70.65;26.48;;;-0.30;99.90;;;-0.29;77.68;100462.09;4959416;28;20042;-88
2024/01/19 04:22:36;;;;;;;65.53;26.08;;;-0.30;99.90;;;-0.21;77.62;100469.22;4979925;28;20411;-88
2024/01/19 04:25:06;;;;;;;71.85;27.55;;;-0.30;99.90;;;-0.31;77.54;100471.06;4972962;28;20075;-88
2024/01/19 04:27:34;;;;;;;67.25;26.95;;;-0.30;99.90;;;-0.29;77.77;100477.00;4986891;28;20050;-88
2024/01/19 04:30:01;;;;;;;68.20;27.17;;;-0.30;99.90;;;-0.23;77.40;100489.53;4978167;28;20047;-88
2024/01/19 04:32:29;;;;;;;59.40;25.48;;;-0.30;99.90;;;-0.18;77.68;100484.69;4976185;28;20046;-88
2024/01/19 04:34:56;;;;;;;61.28;25.38;;;-0.20;99.90;;;-0.15;77.59;100489.63;4977830;28;20043;-88
2024/01/19 04:37:25;;;;;;;69.85;27.00;;;-0.20;99.90;;;-0.10;77.48;100490.06;4979000;28;20066;-88
2024/01/19 04:39:53;;;;;;;65.22;27.13;;;-0.10;99.90;;;-0.21;77.33;100477.09;4996298;28;20042;-89
2024/01/19 04:42:21;;;;;;;64.00;26.90;;;-0.20;99.90;;;-0.14;77.66;100483.44;4959042;28;20058;-88
2024/01/19 04:44:48;;;;;;;68.63;27.13;;;-0.10;99.90;;;-0.10;77.44;100486.59;4976161;28;20057;-88
2024/01/19 04:47:16;;;;;;;67.50;27.88;;;-0.10;99.90;;;-0.02;77.57;100482.28;4982773;28;20046;-88
2024/01/19 04:49:45;;;;;;;71.90;26.73;;;0.00;99.90;;;-0.01;77.40;100489.19;4987553;28;20498;-89
2024/01/19 04:52:12;;;;;;;68.03;27.75;;;0.00;99.90;;;0.02;77.25;100492.50;4977084;28;20430;-89
2024/01/19 04:54:41;;;;;;;64.00;26.25;;;0.00;99.90;;;0.06;77.26;100492.06;4977548;28;20042;-88
2024/01/19 04:57:09;;;;;;;69.38;26.75;;;0.00;99.90;;;0.06;77.24;100497.31;4977040;28;20051;-88
2024/01/19 04:59:36;;;;;;;70.25;27.95;;;0.20;99.90;;;0.00;77.50;100503.13;4976552;28;20042;-89
2024/01/19 05:02:04;;;;;;;69.00;26.60;;;0.00;99.90;;;0.06;77.51;100505.19;4979408;28;20050;-89
2024/01/19 05:04:32;;;;;;;65.45;25.75;;;0.00;99.90;;;0.11;77.46;100512.63;4975898;28;20042;-88
2024/01/19 05:06:59;;;;;;;71.57;27.05;;;0.10;99.90;;;0.08;77.29;100523.38;4980739;28;20150;-89
2024/01/19 05:09:28;;;;;;;67.88;27.70;;;0.00;99.90;;;0.02;77.71;100529.19;4955346;28;20098;-89
2024/01/19 05:11:57;;;;;;;79.43;29.55;;;0.00;99.90;;;0.09;77.73;100531.09;4972864;28;20387;-89
2024/01/19 05:14:28;;;;;;;81.60;27.88;;;0.00;99.90;;;-0.03;77.83;100532.25;4988652;28;20127;-89
2024/01/19 05:16:56;;;;;;;68.50;27.95;;;0.00;99.90;;;0.04;78.18;100527.25;4980082;28;20133;-89
2024/01/19 05:19:26;;;;;;;67.85;27.35;;;0.00;99.90;;;0.11;77.71;100536.22;4959805;28;20478;-89
2024/01/19 05:21:54;;;;;;;70.15;27.35;;;0.00;99.90;;;0.09;77.94;100538.97;4975207;28;20129;-88
2024/01/19 05:24:22;;;;;;;77.90;29.48;;;0.10;99.90;;;0.10;77.58;100547.66;4978085;28;20068;-86
2024/01/19 05:26:49;;;;;;;74.60;28.83;;;0.10;99.90;;;-0.04;77.94;100548.94;4980067;28;20046;-85
2024/01/19 05:29:18;;;;;;;74.70;28.27;;;0.00;99.90;;;-0.05;78.67;100545.50;4946017;28;20065;-86
2024/01/19 05:31:46;;;;;;;80.05;27.58;;;0.00;99.90;;;-0.15;78.48;100544.66;4978208;28;20047;-86
2024/01/19 05:34:13;;;;;;;70.70;28.00;;;0.00;99.90;;;-0.19;79.23;100550.34;4990877;28;20071;-86
2024/01/19 05:36:41;;;;;;;77.97;28.15;;;-0.10;99.90;;;-0.18;79.60;100552.00;4978614;28;20111;-86
2024/01/19 05:39:09;;;;;;;72.53;28.52;;;-0.10;99.90;;;-0.04;79.45;100557.63;4963918;28;20043;-87
2024/01/19 05:41:36;;;;;;;71.10;27.05;;;0.00;99.90;;;0.08;79.20;100562.72;4977353;28;20498;-85
2024/01/19 05:44:04;;;;;;;66.72;28.27;;;0.00;99.90;;;0.17;78.88;100562.69;4952609;28;20113;-90
2024/01/19 05:46:33;;;;;;;67.63;26.02;;;0.10;99.90;;;0.17;78.77;100562.69;4973496;28;20631;-89
2024/01/19 05:49:00;;;;;;;66.05;26.63;;;0.30;99.90;;;0.28;78.35;100571.38;4972630;28;20066;-89
2024/01/19 05:51:28;;;;;;;76.70;27.98;;;0.20;99.90;;;0.33;78.30;100579.63;4974719;28;20046;-85
2024/01/19 05:53:55;;;;;;;74.78;29.20;;;0.20;99.90;;;0.33;78.07;100587.50;4975048;28;20049;-85
2024/01/19 05:56:23;;;;;;;71.50;26.90;;;0.20;99.90;;;0.37;78.12;100581.81;4985921;28;20053;-85
2024/01/19 05:58:50;;;;;;;65.50;27.27;;;0.30;99.90;;;0.43;78.03;100588.28;4979923;28;20131;-85
2024/01/19 06:01:18;;;;;;;66.40;26.75;;;0.30;99.90;;;0.46;77.77;100590.66;4967440;28;20058;-89
2024/01/19 06:03:47;;;;;;;72.40;27.23;;;0.30;99.90;;;0.37;78.01;100599.38;4977410;28;20071;-89
2024/01/19 06:06:15;;;;;;;69.88;26.70;;;0.30;99.90;;;0.39;78.19;100598.28;4977688;28;20109;-89
2024/01/19 06:08:43;;;;;;;75.57;28.27;;;0.30;99.90;;;0.45;77.96;100604.75;4976112;28;20055;-89
2024/01/19 06:11:10;;;;;;;69.53;27.75;;;0.30;99.90;;;0.47;78.01;100598.38;4993884;28;20124;-88
2024/01/19 06:13:40;;;;;;;74.97;27.17;;;0.40;99.90;;;0.41;78.33;100609.44;4978024;28;20053;-89
2024/01/19 06:16:08;;;;;;;79.05;27.83;;;0.40;99.90;;;0.48;78.31;100601.81;4986328;28;20038;-89
2024/01/19 06:18:35;;;;;;;70.22;27.05;;;0.40;99.90;;;0.47;78.38;100600.16;4977475;28;20074;-89
2024/01/19 06:21:09;;;;;;;69.65;27.20;;;0.40;99.90;;;0.51;78.25;100605.00;4980711;28;20519;-89
2024/01/19 06:23:38;;;;;;;68.82;26.65;;;0.40;99.90;;;0.50;78.24;100605.97;4982993;28;20047;-89
2024/01/19 06:26:10;;;;;;;71.80;27.25;;;0.40;99.90;;;0.54;78.18;100610.91;4973802;28;20105;-89
2024/01/19 06:28:37;;;;;;;68.68;27.67;;;0.50;99.90;;;0.49;78.19;100606.94;4982577;28;20408;-86
2024/01/19 06:31:07;;;;;;;66.38;26.75;;;0.50;99.90;;;0.51;78.36;100618.09;4963383;28;20039;-85
2024/01/19 06:33:42;;;;;;;64.35;26.08;;;0.50;99.90;;;0.48;78.24;100609.69;4976216;28;20054;-86
2024/01/19 06:36:12;;;;;;;64.75;26.55;;;0.40;99.90;;;0.47;78.46;100611.47;4977450;28;20442;-87
2024/01/19 06:38:40;;;;;;;68.03;27.83;;;0.40;99.90;;;0.52;78.52;100609.25;4982537;28;20046;-87
2024/01/19 06:41:07;;;;;;;62.83;25.77;;;0.50;99.90;;;0.59;78.31;100617.41;4976239;28;20137;-87
2024/01/19 06:43:36;;;;;;;65.07;26.55;;;0.50;99.90;;;0.62;78.10;100616.28;4975069;28;20051;-87
2024/01/19 06:46:05;;;;;;;67.47;26.55;;;0.50;99.90;;;0.64;78.05;100625.69;4971612;28;20521;-86
2024/01/19 06:48:32;;;;;;;63.38;25.92;;;0.50;99.90;;;0.64;77.63;100638.78;4978819;28;20055;-86
2024/01/19 06:51:00;;;;;;;67.55;26.70;;;0.60;99.90;;;0.67;77.72;100642.91;4998672;28;20085;-86
2024/01/19 06:53:29;;;;;;;71.97;28.73;;;0.60;99.90;;;0.60;77.59;100647.09;4984865;28;20042;-87
2024/01/19 06:55:57;;;;;;;58.67;26.83;;;0.50;99.90;;;0.59;78.07;100653.31;4945456;28;20470;-85
2024/01/19 06:58:24;;;;;;;64.22;28.00;;;0.60;99.90;;;0.62;78.33;100653.00;4982958;28;20110;-84
2024/01/19 07:00:52;;;;;;;66.03;28.80;;;0.60;99.90;;;0.67;78.01;100653.41;4962078;28;20043;-85
2024/01/19 07:03:19;;;;;;;70.53;28.55;;;0.60;99.90;;;0.68;77.97;100652.44;4981925;28;20059;-84
2024/01/19 07:05:46;;;;;;;60.92;27.63;;;0.60;99.90;;;0.65;77.93;100658.81;4977969;28;20046;-85
2024/01/19 07:08:15;;;;;;;67.45;27.58;;;0.50;99.90;;;0.70;77.83;100663.63;4978871;28;20046;-85
2024/01/19 07:10:45;;;;;;;67.80;28.27;;;0.60;99.90;;;0.65;77.72;100665.88;4950671;28;20474;-86
2024/01/19 07:13:12;;;;;;;63.35;28.02;;;0.60;99.90;;;0.33;78.44;100680.13;4978844;28;20034;-85
2024/01/19 07:15:40;;;;;;;70.22;29.33;;;0.50;99.90;;;0.32;79.06;100694.22;4976207;28;20051;-89
2024/01/19 07:18:07;;;;;;;68.90;30.58;;;0.40;99.90;;;0.34;79.53;100699.31;4977287;28;20066;-89
2024/01/19 07:20:35;;;;;;;69.72;30.15;;;0.30;99.90;;;0.47;79.58;100708.56;4958588;28;20078;-89
2024/01/19 07:23:05;;;;;;;65.72;29.05;;;0.40;99.90;;;0.46;79.36;100716.56;4976681;28;20427;-90
2024/01/19 07:25:33;;;;;;;65.25;28.67;;;0.50;99.90;;;0.49;79.42;100714.50;4973818;28;20070;-89
2024/01/19 07:28:02;;;;;;;59.50;28.10;;;0.60;99.90;;;0.58;79.56;100712.00;4959606;29;20040;-88
2024/01/19 07:30:30;;;;;;;69.18;29.35;;;0.50;99.90;;;0.60;79.35;100713.53;4961779;28;20062;-89
2024/01/19 07:32:58;;;;;;;74.25;33.00;;;0.80;99.90;;;0.64;79.27;100714.06;4976459;28;20043;-89
2024/01/19 07:35:26;;;;;;;61.08;29.65;;;0.50;99.90;;;0.63;79.37;100718.47;4977087;28;20051;-89
2024/01/19 07:37:54;;;;;;;70.95;28.42;;;0.50;99.90;;;0.67;79.13;100725.09;4977105;28;20054;-89
2024/01/19 07:40:22;;;;;;;63.80;28.60;;;0.60;99.90;;;0.71;78.92;100720.41;4975581;28;20043;-89
2024/01/19 07:42:50;;;;;;;64.07;28.17;;;0.70;99.90;;;0.76;79.16;100723.44;4976569;28;20047;-89
2024/01/19 07:45:19;;;;;;;56.08;27.75;;;0.70;99.90;;;0.79;78.69;100731.03;4976020;28;20042;-89
2024/01/19 07:47:46;;;;;;;67.72;30.23;;;0.70;99.90;;;0.80;78.52;100734.47;4974815;28;20129;-89
2024/01/19 07:50:14;;;;;;;69.47;31.75;;;0.80;99.90;;;0.81;78.35;100731.72;4974658;28;20506;-89
2024/01/19 07:52:41;;;;;;;69.00;30.20;;;0.70;99.90;;;0.83;78.58;100742.06;4989801;28;20078;-89
2024/01/19 07:55:09;;;;;;;65.20;31.30;;;0.80;99.90;;;0.84;78.27;100760.31;4988758;28;20043;-89
2024/01/19 07:57:37;;;;;;;56.22;27.38;;;0.80;99.90;;;0.85;78.43;100754.09;4975949;28;20042;-89
2024/01/19 08:00:09;;;;;;;55.72;28.00;;;0.80;99.90;;;0.84;78.37;100762.94;4960655;28;20052;-89
2024/01/19 08:02:40;;;;;;;61.88;29.02;;;0.80;99.90;;;0.79;78.91;100759.91;4971593;28;20054;-89
2024/01/19 08:05:08;;;;;;;65.43;30.92;;;0.80;99.90;;;0.80;78.45;100753.69;4975952;28;20105;-89
2024/01/19 08:07:37;;;;;;;60.63;30.20;;;0.80;99.90;;;0.82;78.46;100756.97;4974560;28;20046;-89
2024/01/19 08:10:06;;;;;;;64.82;31.00;;;0.80;99.90;;;0.82;78.40;100754.34;4974854;28;20750;-89
2024/01/19 08:12:33;;;;;;;61.65;31.05;;;0.80;99.90;;;0.82;78.65;100762.25;4963487;28;20122;-89
2024/01/19 08:15:00;;;;;;;67.53;31.38;;;0.80;99.90;;;0.68;78.61;100765.28;4955340;29;20529;-89
2024/01/19 08:17:28;;;;;;;66.10;30.80;;;0.70;99.90;;;0.65;78.97;100778.72;4971356;28;20047;-89
2024/01/19 08:19:57;;;;;;;59.33;28.83;;;0.70;99.90;;;0.68;79.05;100775.78;4939193;28;20045;-89
2024/01/19 08:22:25;;;;;;;62.47;30.13;;;0.70;99.90;;;0.75;78.77;100787.41;4961148;28;20070;-89
2024/01/19 08:24:53;;;;;;;60.83;29.65;;;0.70;99.90;;;0.77;78.97;100783.66;4974452;28;20054;-89
2024/01/19 08:27:20;;;;;;;60.83;29.42;;;0.80;99.90;;;0.71;78.94;100788.66;4964772;28;20058;-89
2024/01/19 08:29:48;;;;;;;57.63;30.42;;;0.80;99.90;;;0.75;78.96;100792.66;4964551;28;20042;-89
2024/01/19 08:32:15;;;;;;;60.35;30.30;;;0.80;99.90;;;0.79;79.05;100796.66;4991957;28;20047;-89
2024/01/19 08:34:44;;;;;;;62.08;29.83;;;0.80;99.90;;;0.86;78.81;100799.53;4993748;28;20428;-89
2024/01/19 08:37:14;;;;;;;62.55;30.02;;;0.80;99.90;;;0.91;78.63;100795.53;4993741;28;20038;-89
2024/01/19 08:39:42;;;;;;;65.68;30.45;;;0.80;99.90;;;0.91;78.30;100803.41;4980874;28;20046;-89
2024/01/19 08:42:09;;;;;;;62.03;31.02;;;0.90;99.90;;;0.87;78.58;100815.16;4992682;28;20475;-89
2024/01/19 08:44:37;;;;;;;55.53;30.48;;;0.80;99.90;;;0.87;78.49;100820.41;4976803;28;20521;-88
2024/01/19 08:47:05;;;;;;;63.72;31.42;;;0.80;99.90;;;0.83;78.36;100821.69;4943816;28;20058;-89
2024/01/19 08:49:32;;;;;;;57.35;29.73;;;0.80;99.90;;;0.83;78.97;100823.44;4988321;28;20043;-90
2024/01/19 08:52:00;;;;;;;55.67;30.02;;;0.80;99.90;;;0.90;78.75;100822.75;4960843;28;20506;-90
2024/01/19 08:54:29;;;;;;;65.90;30.75;;;0.90;99.90;;;0.97;78.68;100839.59;4929678;28;20136;-90
2024/01/19 08:56:57;;;;;;;65.38;30.27;;;0.90;99.90;;;0.97;78.11;100842.22;4986808;28;20055;-89
2024/01/19 08:59:25;;;;;;;64.45;32.33;;;0.90;99.90;;;0.89;78.53;100854.41;4982302;28;20105;-89
2024/01/19 09:01:55;;;;;;;65.70;32.00;;;0.90;99.90;;;0.81;78.75;100852.47;4965795;28;20073;-89
2024/01/19 09:04:23;;;;;;;62.35;31.25;;;0.90;99.90;;;0.91;78.65;100855.91;4958188;29;20499;-89
2024/01/19 09:06:51;;;;;;;66.75;32.58;;;0.90;99.90;;;0.95;78.58;100852.06;4955672;29;20204;-89
2024/01/19 09:09:19;;;;;;;63.53;31.30;;;1.20;99.90;;;0.85;78.62;100861.72;4955267;28;20058;-89
2024/01/19 09:11:48;;;;;;;65.68;32.28;;;0.90;99.90;;;0.88;78.69;100864.09;4971702;28;20057;-89
2024/01/19 09:14:16;;;;;;;65.93;32.72;;;1.00;99.90;;;0.94;78.80;100870.56;4976465;28;20063;-92
2024/01/19 09:16:44;;;;;;;68.93;32.05;;;1.00;99.90;;;1.01;78.77;100877.75;4983724;28;20062;-91
2024/01/19 09:19:13;;;;;;;62.13;31.35;;;1.10;99.90;;;1.08;78.33;100874.59;5004366;28;20043;-92
2024/01/19 09:21:44;;;;;;;68.82;33.00;;;1.10;99.90;;;1.04;78.27;100879.28;4999791;28;20043;-92
2024/01/19 09:24:13;;;;;;;64.18;31.73;;;1.00;99.90;;;1.03;78.55;100886.31;4983396;28;20070;-93
2024/01/19 09:26:41;;;;;;;64.20;30.73;;;1.10;99.90;;;1.09;78.54;100887.56;4999025;28;20050;-93
2024/01/19 09:29:11;;;;;;;65.53;31.42;;;1.10;99.90;;;1.17;78.27;100884.22;4997128;28;20053;-93
2024/01/19 09:31:43;;;;;;;66.13;31.70;;;1.10;99.90;;;1.21;78.30;100882.97;5017156;28;20036;-92
2024/01/19 09:34:14;;;;;;;65.53;32.38;;;1.20;99.90;;;1.24;78.16;100891.41;5003583;28;20039;-93
2024/01/19 09:36:42;;;;;;;70.47;33.80;;;1.20;99.90;;;1.15;77.98;100888.81;5003515;28;20105;-93
2024/01/19 09:39:13;;;;;;;69.15;33.08;;;1.20;99.90;;;1.12;78.21;100896.94;5014758;28;20030;-92
2024/01/19 09:41:48;;;;;;;68.15;34.30;;;1.10;99.90;;;1.16;78.35;100903.59;5023636;28;20050;-92
2024/01/19 09:44:21;;;;;;;63.40;33.35;;;1.20;99.90;;;1.24;78.36;100906.34;5012296;28;20047;-93
2024/01/19 09:47:23;;;;;;;74.40;35.50;;;1.20;99.90;;;1.22;78.23;100913.53;5022891;28;20031;-93
2024/01/19 09:50:04;;;;;;;72.45;34.00;;;1.30;99.90;;;1.22;78.17;100921.41;5022575;28;20030;-93
2024/01/19 09:52:52;;;;;;;74.03;34.67;;;1.20;99.90;;;1.29;78.27;100936.50;5012601;28;20033;-92
2024/01/19 09:55:22;;;;;;;79.55;36.67;;;1.30;99.90;;;1.26;77.76;100934.13;4991145;28;20054;-89
2024/01/19 09:57:50;;;;;;;80.25;37.95;;;1.40;99.90;;;1.22;78.04;100926.66;4982464;28;20054;-89
2024/01/19 10:00:21;;;;;;;79.63;37.38;;;1.30;99.90;;;1.16;78.16;100935.94;4990549;28;20053;-86
2024/01/19 10:02:51;;;;;;;76.80;36.40;;;1.20;99.90;;;1.08;78.50;100940.25;4993533;28;20465;-89
2024/01/19 10:05:21;;;;;;;76.22;35.33;;;1.20;99.90;;;1.10;78.82;100948.81;4997013;28;20070;-89
2024/01/19 10:07:53;;;;;;;65.57;32.92;;;1.30;99.90;;;1.17;78.79;100949.91;5019294;28;20035;-89
2024/01/19 10:10:25;;;;;;;78.75;35.47;;;1.30;99.90;;;1.30;78.86;100953.06;5018986;28;20065;-87
2024/01/19 10:12:53;;;;;;;81.20;35.92;;;1.40;99.90;;;1.25;78.61;100957.91;4985211;28;20055;-89
2024/01/19 10:15:23;;;;;;;73.82;36.13;;;1.40;99.90;;;1.23;78.56;100967.75;4949582;28;20495;-88
2024/01/19 10:17:54;;;;;;;76.53;35.47;;;1.40;99.90;;;1.33;78.77;100954.63;4990934;28;20101;-89